Zelada Desgagnes — CYDR — position and weather

sailwx.info

Track history (hours):
 
Tides and Currents Weather Stations Pressure Air Temp Water Temp Dewpoint Dewpoint Depression Visibility Wind Speed Wind Dir Waves Ship Positions

Zelada Desgagnes

Last reported at 2017-Nov-04 13:05 UTC. Time now 2017-Nov-20 12:16 UTC.
Position N 45°30' W 073°31'.
Warning: this ship's position is 15 days out of date.

Length 139 m; draft 6.7 m.

Type: Ship. MMSI: 316015133.

Date/timePositionNaut miles runAvg speedWind from/ knotsBaromVisibWave heightAir tempDewpointWater temp
2017-Nov-04 13:05N 45°30' W 073°31'0 0.9
2017-Nov-04 12:59N 45°29' W 073°31'2 3.2
2017-Nov-04 12:30N 45°28' W 073°30'3 6.9
2017-Nov-04 12:00N 45°25' W 073°31'2 3.7
2017-Nov-04 11:30N 45°24' W 073°34'1 2.0
2017-Nov-04 11:00N 45°24' W 073°35'2 4.3
2017-Nov-04 10:30N 45°24' W 073°38'3 5.5
2017-Nov-04 10:00N 45°25' W 073°42'3 6.3
2017-Nov-04 09:30N 45°24' W 073°47'4 7.2
2017-Nov-04 09:00N 45°25' W 073°42'3 5.7
2017-Nov-04 08:30N 45°24' W 073°38'2 3.4
2017-Nov-04 08:00N 45°24' W 073°35'0 0.0
2017-Nov-04 07:27N 45°24' W 073°35'0 0.0
2017-Nov-04 06:57N 45°24' W 073°35'0 0.0
2017-Nov-04 05:24N 45°24' W 073°35'0 0.0
2017-Nov-04 04:54N 45°24' W 073°35'0 0.0
2017-Nov-04 04:30N 45°24' W 073°35'0 0.0
2017-Nov-04 04:00N 45°24' W 073°35'0 0.0
2017-Nov-04 03:30N 45°24' W 073°35'0 0.0
2017-Nov-04 03:00N 45°24' W 073°35'0 0.0
2017-Nov-04 02:30N 45°24' W 073°35'0 0.0
2017-Nov-04 02:00N 45°24' W 073°35'0 0.0
2017-Nov-04 01:30N 45°24' W 073°35'0 0.0
2017-Nov-04 01:00N 45°24' W 073°35'0 0.0
2017-Nov-04 00:30N 45°24' W 073°35'0 0.0
2017-Nov-03 23:54N 45°24' W 073°35'0 0.0
2017-Nov-03 22:48N 45°24' W 073°35'0 0.0
2017-Nov-03 22:30N 45°24' W 073°35'0 0.0
2017-Nov-03 20:36N 45°24' W 073°35'0 0.0
2017-Nov-03 20:30N 45°24' W 073°35'0 0.0
2017-Nov-03 20:00N 45°24' W 073°35'0 0.0
2017-Nov-03 19:30N 45°24' W 073°35'0 0.0
2017-Nov-03 19:00N 45°24' W 073°35'0 0.0
2017-Nov-03 16:24N 45°24' W 073°35'0 0.1
2017-Nov-03 16:00N 45°24' W 073°35'0 0.0
2017-Nov-03 15:30N 45°24' W 073°35'0 0.0
2017-Nov-03 15:00N 45°24' W 073°35'0 0.0
2017-Nov-03 14:30N 45°24' W 073°35'0 0.0
2017-Nov-03 13:54N 45°24' W 073°35'0 0.0
2017-Nov-03 13:24N 45°24' W 073°35'0 0.0
2017-Nov-03 12:18N 45°24' W 073°35'0 0.0
2017-Nov-03 11:42N 45°24' W 073°35'0 0.0
2017-Nov-03 11:12N 45°24' W 073°35'0 0.1
2017-Nov-03 11:00N 45°24' W 073°35'0 0.0
2017-Nov-03 10:30N 45°24' W 073°35'0 0.0
2017-Nov-03 10:00N 45°24' W 073°35'0 0.0
2017-Nov-03 09:30N 45°24' W 073°35'0 0.0
2017-Nov-03 09:00N 45°24' W 073°35'0 0.0
2017-Nov-03 08:30N 45°24' W 073°35'0 0.0
2017-Nov-03 08:00N 45°24' W 073°35'0 0.0
2017-Nov-03 07:30N 45°24' W 073°35'0 0.0
2017-Nov-03 07:00N 45°24' W 073°35'0 0.0
2017-Nov-03 06:24N 45°24' W 073°35'0 0.0
2017-Nov-03 06:00N 45°24' W 073°35'0 0.0
2017-Nov-03 04:24N 45°24' W 073°35'0 0.0
2017-Nov-03 03:54N 45°24' W 073°35'0 0.0
2017-Nov-03 03:30N 45°24' W 073°35'0 0.0
2017-Nov-03 03:00N 45°24' W 073°35'0 0.0
2017-Nov-03 02:18N 45°24' W 073°35'0 0.0
2017-Nov-03 01:48N 45°24' W 073°35'0 0.0
2017-Nov-03 01:30N 45°24' W 073°35'0 0.0
2017-Nov-03 01:00N 45°24' W 073°35'0 0.0
2017-Nov-03 00:30N 45°24' W 073°35'0 0.0
2017-Nov-02 23:54N 45°24' W 073°35'0 0.0
2017-Nov-02 23:18N 45°24' W 073°35'0 0.0
2017-Nov-02 23:00N 45°24' W 073°35'0 0.0
2017-Nov-02 22:30N 45°24' W 073°35'0 0.0
2017-Nov-02 22:00N 45°24' W 073°35'0 0.0
2017-Nov-02 21:30N 45°24' W 073°35'0 0.0
2017-Nov-02 21:00N 45°24' W 073°35'0 0.0
2017-Nov-02 20:30N 45°24' W 073°35'0 0.0
2017-Nov-02 19:42N 45°24' W 073°35'0 0.0
2017-Nov-02 19:30N 45°24' W 073°35'0 0.0
2017-Nov-02 18:48N 45°24' W 073°35'0 0.0
2017-Nov-02 18:24N 45°24' W 073°35'0 0.0
2017-Nov-02 17:54N 45°24' W 073°35'0 0.0
2017-Nov-02 17:00N 45°24' W 073°35'0 0.0
2017-Nov-02 16:24N 45°24' W 073°35'0 0.0
2017-Nov-02 15:48N 45°24' W 073°35'0 0.0
2017-Nov-02 15:30N 45°24' W 073°35'0 0.0
2017-Nov-02 14:42N 45°24' W 073°35'0 0.0
2017-Nov-02 14:24N 45°24' W 073°35'0 0.0
2017-Nov-02 14:00N 45°24' W 073°35'0 0.0
2017-Nov-02 13:18N 45°24' W 073°35'0 0.0
2017-Nov-02 13:00N 45°24' W 073°35'0 0.0
2017-Nov-02 12:18N 45°24' W 073°35'0 0.0
2017-Nov-02 11:54N 45°24' W 073°35'0 0.0
2017-Nov-02 11:30N 45°24' W 073°35'0 0.0
2017-Nov-02 10:48N 45°24' W 073°35'0 0.0
2017-Nov-02 10:30N 45°24' W 073°35'0 0.0
2017-Nov-02 10:00N 45°24' W 073°35'0 0.0
2017-Nov-02 09:30N 45°24' W 073°35'0 0.0
2017-Nov-02 09:00N 45°24' W 073°35'0 0.0
2017-Nov-02 08:24N 45°24' W 073°35'0 0.0
2017-Nov-02 08:00N 45°24' W 073°35'0 0.0
2017-Nov-02 07:30N 45°24' W 073°35'0 0.2
2017-Nov-02 07:00N 45°24' W 073°35'1 1.9
2017-Nov-02 06:30N 45°24' W 073°34'1 1.3
2017-Nov-02 06:00N 45°24' W 073°33'3 5.8
2017-Nov-02 05:30N 45°27' W 073°30'3 3.6
2017-Nov-02 04:36N 45°30' W 073°31'0 1.3
2017-Nov-02 04:30N 45°30' W 073°31'3 3.6
2017-Nov-02 03:43N 45°33' W 073°32'0 1.8
2017-Nov-02 03:30N 45°33' W 073°31'  
2017-Oct-30 02:43N 51°05' W 057°35'512.7
2017-Oct-30 02:20N 51°08' W 057°29'  
Track history (hours):
 
Tides and Currents Weather Stations Pressure Air Temp Water Temp Dewpoint Dewpoint Depression Visibility Wind Speed Wind Dir Waves Ship Positions

Zelada Desgagnes

Last reported at 2017-Nov-04 13:05 UTC. Time now 2017-Nov-20 12:16 UTC.
Position N 45°30' W 073°31'.
Warning: this ship's position is 15 days out of date.

Length 139 m; draft 6.7 m.

Type: Ship. MMSI: 316015133.

Date/timePositionNaut miles runAvg speedWind from/ knotsBaromVisibWave heightAir tempDewpointWater temp
2017-Nov-04 13:05N 45°30' W 073°31'0 0.9
2017-Nov-04 12:59N 45°29' W 073°31'2 3.2
2017-Nov-04 12:30N 45°28' W 073°30'3 6.9
2017-Nov-04 12:00N 45°25' W 073°31'2 3.7
2017-Nov-04 11:30N 45°24' W 073°34'1 2.0
2017-Nov-04 11:00N 45°24' W 073°35'2 4.3
2017-Nov-04 10:30N 45°24' W 073°38'3 5.5
2017-Nov-04 10:00N 45°25' W 073°42'3 6.3
2017-Nov-04 09:30N 45°24' W 073°47'4 7.2
2017-Nov-04 09:00N 45°25' W 073°42'3 5.7
2017-Nov-04 08:30N 45°24' W 073°38'2 3.4
2017-Nov-04 08:00N 45°24' W 073°35'0 0.0
2017-Nov-04 07:27N 45°24' W 073°35'0 0.0
2017-Nov-04 06:57N 45°24' W 073°35'0 0.0
2017-Nov-04 05:24N 45°24' W 073°35'0 0.0
2017-Nov-04 04:54N 45°24' W 073°35'0 0.0
2017-Nov-04 04:30N 45°24' W 073°35'0 0.0
2017-Nov-04 04:00N 45°24' W 073°35'0 0.0
2017-Nov-04 03:30N 45°24' W 073°35'0 0.0
2017-Nov-04 03:00N 45°24' W 073°35'0 0.0
2017-Nov-04 02:30N 45°24' W 073°35'0 0.0
2017-Nov-04 02:00N 45°24' W 073°35'0 0.0
2017-Nov-04 01:30N 45°24' W 073°35'0 0.0
2017-Nov-04 01:00N 45°24' W 073°35'0 0.0
2017-Nov-04 00:30N 45°24' W 073°35'0 0.0
2017-Nov-03 23:54N 45°24' W 073°35'0 0.0
2017-Nov-03 22:48N 45°24' W 073°35'0 0.0
2017-Nov-03 22:30N 45°24' W 073°35'0 0.0
2017-Nov-03 20:36N 45°24' W 073°35'0 0.0
2017-Nov-03 20:30N 45°24' W 073°35'0 0.0
2017-Nov-03 20:00N 45°24' W 073°35'0 0.0
2017-Nov-03 19:30N 45°24' W 073°35'0 0.0
2017-Nov-03 19:00N 45°24' W 073°35'0 0.0
2017-Nov-03 16:24N 45°24' W 073°35'0 0.1
2017-Nov-03 16:00N 45°24' W 073°35'0 0.0
2017-Nov-03 15:30N 45°24' W 073°35'0 0.0
2017-Nov-03 15:00N 45°24' W 073°35'0 0.0
2017-Nov-03 14:30N 45°24' W 073°35'0 0.0
2017-Nov-03 13:54N 45°24' W 073°35'0 0.0
2017-Nov-03 13:24N 45°24' W 073°35'0 0.0
2017-Nov-03 12:18N 45°24' W 073°35'0 0.0
2017-Nov-03 11:42N 45°24' W 073°35'0 0.0
2017-Nov-03 11:12N 45°24' W 073°35'0 0.1
2017-Nov-03 11:00N 45°24' W 073°35'0 0.0
2017-Nov-03 10:30N 45°24' W 073°35'0 0.0
2017-Nov-03 10:00N 45°24' W 073°35'0 0.0
2017-Nov-03 09:30N 45°24' W 073°35'0 0.0
2017-Nov-03 09:00N 45°24' W 073°35'0 0.0
2017-Nov-03 08:30N 45°24' W 073°35'0 0.0
2017-Nov-03 08:00N 45°24' W 073°35'0 0.0
2017-Nov-03 07:30N 45°24' W 073°35'0 0.0
2017-Nov-03 07:00N 45°24' W 073°35'0 0.0
2017-Nov-03 06:24N 45°24' W 073°35'0 0.0
2017-Nov-03 06:00N 45°24' W 073°35'0 0.0
2017-Nov-03 04:24N 45°24' W 073°35'0 0.0
2017-Nov-03 03:54N 45°24' W 073°35'0 0.0
2017-Nov-03 03:30N 45°24' W 073°35'0 0.0
2017-Nov-03 03:00N 45°24' W 073°35'0 0.0
2017-Nov-03 02:18N 45°24' W 073°35'0 0.0
2017-Nov-03 01:48N 45°24' W 073°35'0 0.0
2017-Nov-03 01:30N 45°24' W 073°35'0 0.0
2017-Nov-03 01:00N 45°24' W 073°35'0 0.0
2017-Nov-03 00:30N 45°24' W 073°35'0 0.0
2017-Nov-02 23:54N 45°24' W 073°35'0 0.0
2017-Nov-02 23:18N 45°24' W 073°35'0 0.0
2017-Nov-02 23:00N 45°24' W 073°35'0 0.0
2017-Nov-02 22:30N 45°24' W 073°35'0 0.0
2017-Nov-02 22:00N 45°24' W 073°35'0 0.0
2017-Nov-02 21:30N 45°24' W 073°35'0 0.0
2017-Nov-02 21:00N 45°24' W 073°35'0 0.0
2017-Nov-02 20:30N 45°24' W 073°35'0 0.0
2017-Nov-02 19:42N 45°24' W 073°35'0 0.0
2017-Nov-02 19:30N 45°24' W 073°35'0 0.0
2017-Nov-02 18:48N 45°24' W 073°35'0 0.0
2017-Nov-02 18:24N 45°24' W 073°35'0 0.0
2017-Nov-02 17:54N 45°24' W 073°35'0 0.0
2017-Nov-02 17:00N 45°24' W 073°35'0 0.0
2017-Nov-02 16:24N 45°24' W 073°35'0 0.0
2017-Nov-02 15:48N 45°24' W 073°35'0 0.0
2017-Nov-02 15:30N 45°24' W 073°35'0 0.0
2017-Nov-02 14:42N 45°24' W 073°35'0 0.0
2017-Nov-02 14:24N 45°24' W 073°35'0 0.0
2017-Nov-02 14:00N 45°24' W 073°35'0 0.0
2017-Nov-02 13:18N 45°24' W 073°35'0 0.0
2017-Nov-02 13:00N 45°24' W 073°35'0 0.0
2017-Nov-02 12:18N 45°24' W 073°35'0 0.0
2017-Nov-02 11:54N 45°24' W 073°35'0 0.0
2017-Nov-02 11:30N 45°24' W 073°35'0 0.0
2017-Nov-02 10:48N 45°24' W 073°35'0 0.0
2017-Nov-02 10:30N 45°24' W 073°35'0 0.0
2017-Nov-02 10:00N 45°24' W 073°35'0 0.0
2017-Nov-02 09:30N 45°24' W 073°35'0 0.0
2017-Nov-02 09:00N 45°24' W 073°35'0 0.0
2017-Nov-02 08:24N 45°24' W 073°35'0 0.0
2017-Nov-02 08:00N 45°24' W 073°35'0 0.0
2017-Nov-02 07:30N 45°24' W 073°35'0 0.2
2017-Nov-02 07:00N 45°24' W 073°35'1 1.9
2017-Nov-02 06:30N 45°24' W 073°34'1 1.3
2017-Nov-02 06:00N 45°24' W 073°33'3 5.8
2017-Nov-02 05:30N 45°27' W 073°30'3 3.6
2017-Nov-02 04:36N 45°30' W 073°31'0 1.3
2017-Nov-02 04:30N 45°30' W 073°31'3 3.6
2017-Nov-02 03:43N 45°33' W 073°32'0 1.8
2017-Nov-02 03:30N 45°33' W 073°31'  
2017-Oct-30 02:43N 51°05' W 057°35'512.7
2017-Oct-30 02:20N 51°08' W 057°29'  

Dump ship's entire track history